Tiempo atmosférico en la estación meteorológica de Martinet, Lleida (1038 m.)



Fecha
DESCASC
Temp. máxima en grados centígrados (hora)
DESCASC
Temp. mínima en grados centígrados (hora)
DESCASC
Temp. media en grados centígrados
DESCASC
Racha de viento máxima en m/sg (hora)
DESCASC
Velocidad máxima media en intervalos de 10 minutos(hora)
DESCASC
Precipitaciones diarias en mm
DESCASC
Precipitaciones de 00:00 a 06:00 en mm
DESCASC
Precipitaciones de 06:00 a 12:00 en mm
DESCASC
Precipitaciones de 12:00 a 18:00 en mm
DESCASC
Precipitaciones de 18:00 a 24:00 en mm
DESCASC
18-04-2019 17.4 (15:30) 5.8 (07:40) 11.6 9.72 (17:50) 6.67 (17:50) 0 0 0 0 0
17-04-2019 20.8 (17:30) 4.6 (02:30) 12.7 11.67 (14:40) 6.39 (14:40) 0 0 0 0 0
16-04-2019 16.6 (17:30) 6 (00:00) 11.3 10.83 (01:30) 6.11 (01:30) 6.6 6.6 0 0 0
15-04-2019 20.4 (13:40) 2.8 (00:00) 11.6 10.56 (15:20) 5.83 (16:20) 0 0 0 0 0
14-04-2019 19.1 (17:40) -2.1 (-00:0) 8.5 11.11 (17:30) 7.22 (15:40) 0 0 0 0 0
13-04-2019 20 (16:20) -3.9 (-00:0) 8 9.44 (15:30) 3.89 (14:50) 0 0 0 0 0
12-04-2019 16.7 (16:10) 1.8 (00:00) 9.3 10.28 (13:00) 5.28 (13:00) 0 0 0 0 0
11-04-2019 13.2 (13:10) -0.3 (00:00) 6.4 12.5 (11:40) 5.83 (11:40) 0.2 0.2 0 0 0
10-04-2019 13.8 (15:50) -1.1 (-00:0) 6.4 11.67 (20:20) 7.22 (20:20) 0.2 0 0 0.2 0
09-04-2019 13.2 (13:00) 0.9 (00:00) 7 11.11 (18:20) 5 (18:20) 3.2 2.4 0 0.2 0.6
08-04-2019 15.9 (18:20) -0.8 (-00:0) 7.5 11.11 (21:00) 7.5 (21:00) 0.2 0 0 0 0.2
07-04-2019 12.5 (17:10) 0.7 (00:00) 6.6 8.33 (14:00) 4.17 (15:30) 2.8 0.8 0 1.4 0.6
06-04-2019 8 (14:20) 0.2 (00:00) 4.1 11.11 (14:30) 6.11 (14:30) 11 10.6 0 0.2 0.2
05-04-2019 9.4 (16:10) -4 (-00:0) 2.7 8.06 (12:10) 3.06 (12:10) 6.6 0 0 0 6.6
04-04-2019 11.8 (16:30) -2.9 (-00:0) 4.5 8.61 (11:50) 4.44 (12:20) 0 0 0 0 0
03-04-2019 9.6 (13:30) 1.1 (00:00) 5.4 13.89 (13:40) 7.5 (13:40) 8.6 1 3.6 3.8 0.2
02-04-2019 15.4 (15:30) 2.1 (00:00) 8.7 11.11 (17:10) 7.78 (17:30) 0.2 0 0 0 0.2
01-04-2019 15.9 (12:50) 1.6 (00:00) 8.7 7.22 (17:30) 3.61 (14:50) 1.4 0 0 0.6 0.8
31-03-2019 17.6 (15:20) -3.1 (-00:0) 7.3 6.11 (16:30) 3.89 (18:20) 0 0 0 0 0
30-03-2019 17.8 (14:30) -4 (-00:0) 6.9 9.72 (15:00) 5.28 (15:00) 0 0 0 0 0
29-03-2019 15.6 (13:30) -1.9 (-00:0) 6.9 7.22 (11:00) 3.61 (11:10) 0 0 0 0 0
28-03-2019 18.7 (15:40) -4.1 (-00:0) 7.3 10.83 (15:50) 5.83 (17:30) 0 0 0 0 0
27-03-2019 17.8 (15:20) -4.4 (-00:0) 6.7 11.11 (21:10) 6.67 (21:10) 0 0 0 0 0
26-03-2019 15.4 (14:50) -2 (-00:0) 6.7 12.5 (11:30) 5.83 (20:40) 0 0 0 0 0
25-03-2019 20.9 (13:50) -1.5 (-00:0) 9.7 11.39 (14:30) 5.83 (14:00) 0 0 0 0 0
24-03-2019 22.3 (15:10) -2.6 (-00:0) 9.8 8.89 (17:40) 5.28 (19:30) 0 0 0 0 0
23-03-2019 21.3 (14:40) -2.7 (-00:0) 9.3 9.17 (17:40) 6.67 (17:40) 0 0 0 0 0
22-03-2019 20.3 (14:40) -4.1 (-00:0) 8.1 8.06 (14:20) 3.61 (14:30) 0 0 0 0 0
21-03-2019 16.3 (15:10) -5.6 (-00:0) 5.3 11.11 (19:20) 7.22 (19:20) 0 0 0 0 0

Gráficas

Temp. máximas Temp. mínimas Temp. medias Precipitaciones Rachas de viento máximas Velocidades máximas media en intervalos de 10 minutos

Datos horarios

Fecha y hora oficial Temperatura (ºC) Velocidad del viento (km/h) Dirección del viento Racha (km/h) Dirección de racha Precipitación (mm) Presión (hPa) Tendencia (hPa) Humedad (%)
2019-04-19 23:00:00 10.7 5 Nordeste 27 Este 0 -- -- 61
2019-04-19 22:00:00 12 9 Este 31 Este 0 -- -- 56
2019-04-19 21:00:00 13.1 17 Este 40 Este 0 -- -- 48
2019-04-19 20:00:00 14.4 20 Este 42 Este 0 -- -- 41
2019-04-19 19:00:00 15.9 28 Este 45 Este 0 -- -- 40
2019-04-19 18:00:00 16.7 27 Este 48 Este 0 -- -- 38
2019-04-19 17:00:00 18.3 27 Este 44 Este 0 -- -- 36
2019-04-19 16:00:00 17.6 17 Este 39 Este 0 -- -- 38
2019-04-19 15:00:00 17.5 12 Este 32 Nordeste 0 -- -- 36
2019-04-19 14:00:00 16.6 24 Este 44 Este 0 -- -- 35
2019-04-19 13:00:00 15.6 28 Este 43 Este 0 -- -- 36
2019-04-19 12:00:00 14 20 Este 37 Este 0 -- -- 39
2019-04-19 11:00:00 12.5 13 Este 37 Este 0 -- -- 43
2019-04-19 10:00:00 11.1 14 Este 26 Este 0 -- -- 47
2019-04-19 09:00:00 9.9 4 Este 27 Este 0 -- -- 51
2019-04-19 08:00:00 9.2 6 Este 28 Este 0 -- -- 53
2019-04-19 07:00:00 9.5 7 Este 24 Este 0 -- -- 50
2019-04-19 06:00:00 9.7 7 Nordeste 18 Nordeste 0 -- -- 50
2019-04-19 05:00:00 9.8 13 Nordeste 24 Nordeste 0 -- -- 51
2019-04-19 04:00:00 10 10 Nordeste 30 Nordeste 0 -- -- 49
2019-04-19 03:00:00 10.5 13 Nordeste 27 Nordeste 0 -- -- 46
2019-04-19 02:00:00 10.3 14 Nordeste 27 Nordeste 0 -- -- 48
2019-04-19 01:00:00 9.9 10 Este 24 Nordeste 0 -- -- 55
2019-04-19 00:00:00 9.8 7 Este 24 Este 0 -- -- 58
2019-04-18 23:00:00 10.8 12 Este 32 Este 0 -- -- 60
2019-04-18 22:00:00 11.2 13 Este 29 Este 0 -- -- 65
2019-04-18 21:00:00 12.9 10 Este 31 Este 0 -- -- 50
2019-04-18 20:00:00 14.2 8 Este 27 Nordeste 0 -- -- 46
2019-04-18 19:00:00 14.6 16 Nordeste 32 Este 0 -- -- 44
2019-04-18 18:00:00 16.4 12 Este 35 Este 0 -- -- 39
2019-04-18 17:00:00 17.3 9 Nordeste 28 Nordeste 0 -- -- 37
2019-04-18 16:00:00 16.5 14 Nordeste 28 Este 0 -- -- 38
2019-04-18 15:00:00 17.1 7 Nordeste 22 Este 0 -- -- 41
2019-04-18 14:00:00 15.4 9 Nordeste 20 Este 0 -- -- 46
2019-04-18 13:00:00 14.2 3 Sur 15 Noroeste 0 -- -- 60
2019-04-18 12:00:00 12.9 3 Noroeste 10 Oeste 0 -- -- 68
2019-04-18 11:00:00 10.5 3 Oeste 11 Oeste 0 -- -- 79
2019-04-18 10:00:00 8.5 4 Noroeste 8 Oeste 0 -- -- 85
2019-04-18 09:00:00 7.2 0 Calma 18 Nordeste 0 -- -- 90
2019-04-18 08:00:00 6 6 Este 18 Este 0 -- -- 93
2019-04-18 07:00:00 5.9 0 Calma 4 Norte 0 -- -- 88
2019-04-18 06:00:00 6.3 0 Calma 6 Norte 0 -- -- 85
2019-04-18 05:00:00 6.8 0 Calma 5 Norte 0 -- -- 83
2019-04-18 04:00:00 7.3 2 Noroeste 6 Norte 0 -- -- 82
2019-04-18 03:00:00 7.9 3 Norte 5 Norte 0 -- -- 80
2019-04-18 02:00:00 8.5 0 Calma 5 Noroeste 0 -- -- 80
2019-04-18 01:00:00 9.2 0 Calma 5 Oeste 0 -- -- 77
2019-04-18 00:00:00 10.1 2 Noroeste 9 Norte 0 -- -- 74
2019-04-17 23:00:00 11.4 4 Noroeste 8 Oeste 0 -- -- 71
2019-04-17 22:00:00 12.7 4 Noroeste 12 Noroeste 0 -- -- 66
2019-04-17 21:00:00 14.4 6 Noroeste 28 Oeste 0 -- -- 58
2019-04-17 20:00:00 16 8 Oeste 25 Sudoeste 0 -- -- 50
2019-04-17 19:00:00 18.1 13 Oeste 30 Oeste 0 -- -- 44
2019-04-17 18:00:00 19.9 16 Oeste 32 Oeste 0 -- -- 39
2019-04-17 17:00:00 20.1 13 Sudoeste 30 Oeste 0 -- -- 39
2019-04-17 16:00:00 18.4 15 Oeste 32 Oeste 0 -- -- 43
2019-04-17 15:00:00 17.8 20 Oeste 42 Oeste 0 -- -- 44
2019-04-17 14:00:00 19.3 18 Oeste 34 Oeste 0 -- -- 43
2019-04-17 13:00:00 18.1 16 Oeste 27 Oeste 0 -- -- 47
2019-04-17 12:00:00 15.9 10 Oeste 21 Oeste 0 -- -- 52
2019-04-17 11:00:00 12.7 8 Oeste 15 Oeste 0 -- -- 62
2019-04-17 10:00:00 10.2 3 Sudeste 8 Este 0 -- -- 74
2019-04-17 09:00:00 6.6 3 Este 6 Norte 0 -- -- 82
2019-04-17 08:00:00 4.6 2 Oeste 4 Oeste 0 -- -- 93
2019-04-17 07:00:00 5.4 0 Calma 5 Este 0 -- -- 92
2019-04-17 06:00:00 5.6 0 Calma 5 Norte 0 -- -- 90
2019-04-17 05:00:00 5.8 0 Calma -- -- 0 -- -- 90
2019-04-17 04:00:00 5.6 0 Calma 5 Noroeste 0 -- -- 89
2019-04-17 03:00:00 4.9 2 Noroeste 9 Norte 0 -- -- 92
2019-04-17 02:00:00 5.2 3 Nordeste 12 Norte 0 -- -- 88
2019-04-17 01:00:00 6.4 6 Norte 13 Norte 0 -- -- 85
2019-04-17 00:00:00 7.3 2 Noroeste 11 Noroeste 0 -- -- 82
2019-04-16 23:00:00 7.8 4 Norte 10 Norte 0 -- -- 80
2019-04-16 22:00:00 9 4 Nordeste 11 Norte 0 -- -- 77
2019-04-16 21:00:00 10.7 3 Norte 14 Oeste 0 -- -- 68
2019-04-16 20:00:00 12.5 8 Oeste 30 Oeste 0 -- -- 62
2019-04-16 19:00:00 15.5 14 Oeste 30 Oeste 0 -- -- 52
2019-04-16 18:00:00 15.5 11 Oeste 23 Oeste 0 -- -- 52
2019-04-16 17:00:00 15.9 11 Oeste 20 Oeste 0 -- -- 57
2019-04-16 16:00:00 13.7 4 Sudoeste 17 Sudoeste 0 -- -- 63
2019-04-16 15:00:00 12.9 4 Oeste 13 Oeste 0 -- -- 65
2019-04-16 14:00:00 12 6 Oeste 14 Oeste 0 -- -- 71
2019-04-16 13:00:00 10.4 7 Oeste 17 Oeste 0 -- -- 78
2019-04-16 12:00:00 9.5 8 Oeste 12 Oeste 0 -- -- 84
2019-04-16 11:00:00 8.7 5 Oeste 9 Oeste 0 -- -- 88
2019-04-16 10:00:00 7.4 4 Oeste 12 Oeste 0 -- -- 94
2019-04-16 09:00:00 6.6 3 Noroeste 6 Oeste 0 -- -- 97
2019-04-16 08:00:00 6.2 0 Calma 6 Noroeste 0 -- -- 97
2019-04-16 07:00:00 6.1 2 Noroeste 6 Oeste 0 -- -- 97
2019-04-16 06:00:00 6 3 Noroeste 9 Noroeste 0 -- -- 97
2019-04-16 05:00:00 6.2 4 Oeste 9 Oeste 0 -- -- 97
2019-04-16 04:00:00 6.3 2 Noroeste 6 Norte 0 -- -- 95
2019-04-16 03:00:00 6.8 2 Oeste 22 Oeste 1.8 -- -- 95
2019-04-16 02:00:00 7.3 14 Oeste 39 Oeste 1.8 -- -- 93
2019-04-16 01:00:00 7.7 4 Sur 23 Oeste 3 -- -- 94
2019-04-16 00:00:00 8.6 12 Oeste 33 Sudoeste 0 -- -- 81
2019-04-15 23:00:00 9.5 8 Oeste 19 Sudoeste 0 -- -- 70
2019-04-15 22:00:00 10.8 8 Noroeste 24 Oeste 0 -- -- 67
2019-04-15 21:00:00 12.4 12 Oeste 34 Oeste 0 -- -- 64
2019-04-15 20:00:00 14.3 9 Sudoeste 24 Sudoeste 0 -- -- 59
2019-04-15 19:00:00 16.4 9 Oeste 29 Oeste 0 -- -- 52
2019-04-15 18:00:00 16.9 14 Oeste 37 Oeste 0 -- -- 51
2019-04-15 17:00:00 18.7 18 Oeste 35 Oeste 0 -- -- 46
2019-04-15 16:00:00 18.4 20 Oeste 38 Oeste 0 -- -- 45
2019-04-15 15:00:00 18.4 17 Oeste 34 Oeste 0 -- -- 45
2019-04-15 14:00:00 19.6 17 Oeste 33 Oeste 0 -- -- 44
2019-04-15 13:00:00 19.2 11 Oeste 28 Oeste 0 -- -- 42
2019-04-15 12:00:00 16.9 5 Sudoeste 10 Oeste 0 -- -- 48
2019-04-15 11:00:00 13 4 Sudoeste 8 Sudeste 0 -- -- 59
2019-04-15 10:00:00 8.9 4 Sur 7 Sudeste 0 -- -- 77
2019-04-15 09:00:00 5.3 0 Calma 6 Este 0 -- -- 88
2019-04-15 08:00:00 3 2 Nordeste 5 Oeste 0 -- -- 93
2019-04-15 07:00:00 3 2 Noroeste 6 Norte 0 -- -- 91
2019-04-15 06:00:00 3.5 2 Nordeste 5 Norte 0 -- -- 91
2019-04-15 05:00:00 3.7 2 Oeste 4 Sudoeste 0 -- -- 89
2019-04-15 04:00:00 4.9 0 Calma 7 Norte 0 -- -- 84
2019-04-15 03:00:00 5.8 2 Norte 5 Nordeste 0 -- -- 81
2019-04-15 02:00:00 7 3 Oeste 7 Norte 0 -- -- 77
2019-04-15 01:00:00 7.6 3 Nordeste 9 Norte 0 -- -- 74
2019-04-15 00:00:00 9 3 Sudoeste 8 Nordeste 0 -- -- 70
2019-04-14 23:00:00 10.7 4 Nordeste 10 Nordeste 0 -- -- 64
2019-04-14 22:00:00 13.1 4 Norte 23 Oeste 0 -- -- 56
2019-04-14 21:00:00 14.5 10 Oeste 28 Sudoeste 0 -- -- 51
2019-04-14 20:00:00 16.1 17 Sudoeste 36 Sudoeste 0 -- -- 47
2019-04-14 19:00:00 17.2 20 Sudoeste 39 Sudoeste 0 -- -- 44
2019-04-14 18:00:00 17.8 20 Sudoeste 40 Sur 0 -- -- 42
2019-04-14 17:00:00 17.6 19 Sudoeste 37 Sudoeste 0 -- -- 43
2019-04-14 16:00:00 17.1 24 Sudoeste 38 Sudoeste 0 -- -- 44
2019-04-14 15:00:00 17.5 15 Sudoeste 27 Sudoeste 0 -- -- 41
2019-04-14 14:00:00 15.2 10 Nordeste 22 Este 0 -- -- 27
2019-04-14 13:00:00 14.8 15 Este 28 Este 0 -- -- 26
2019-04-14 12:00:00 14.8 16 Este 24 Este 0 -- -- 25
2019-04-14 11:00:00 11.3 5 Este 9 Sudeste 0 -- -- 32
2019-04-14 10:00:00 5.4 3 Sudeste 6 Este 0 -- -- 49
2019-04-14 09:00:00 1.5 2 Sudeste 8 Sudeste 0 -- -- 62
2019-04-14 08:00:00 -1.6 3 Nordeste 5 Nordeste 0 -- -- 75
2019-04-14 07:00:00 -2 0 Calma 6 Nordeste 0 -- -- 75
2019-04-14 06:00:00 -1.4 0 Calma 8 Este 0 -- -- 72
2019-04-14 05:00:00 -1.1 3 Este 6 Este 0 -- -- 69
2019-04-14 04:00:00 -0.9 2 Este 6 Norte 0 -- -- 67
2019-04-14 03:00:00 -0.3 0 Calma 5 Norte 0 -- -- 56
2019-04-14 02:00:00 0.8 2 Este 7 Oeste 0 -- -- 54
2019-04-14 01:00:00 2.3 2 Sudeste 5 Este 0 -- -- 45
2019-04-14 00:00:00 3.9 0 Calma 7 Norte 0 -- -- 40
2019-04-13 23:00:00 5.9 2 Nordeste 8 Norte 0 -- -- 35
2019-04-13 22:00:00 8.6 0 Calma 10 Norte 0 -- -- 27
2019-04-13 21:00:00 11.1 5 Noroeste 20 Noroeste 0 -- -- 22
2019-04-13 20:00:00 13.6 7 Norte 22 Noroeste 0 -- -- 18
2019-04-13 19:00:00 16.7 9 Noroeste 27 Norte 0 -- -- 14
2019-04-13 18:00:00 16.8 8 Noroeste 30 Noroeste 0 -- -- 12
2019-04-13 17:00:00 19.4 10 Noroeste 30 Norte 0 -- -- 10
2019-04-13 16:00:00 19.6 10 Norte 34 Sudeste 0 -- -- 12
2019-04-13 15:00:00 17.6 13 Nordeste 23 Este 0 -- -- 13
2019-04-13 14:00:00 17.4 6 Nordeste 15 Nordeste 0 -- -- 13
2019-04-13 13:00:00 16.2 4 Este 22 Este 0 -- -- 18
2019-04-13 12:00:00 13.6 10 Este 16 Este 0 -- -- 19
2019-04-13 11:00:00 8.4 5 Sudeste 15 Este 0 -- -- 42
2019-04-13 10:00:00 4.5 7 Este 15 Este 0 -- -- 53
2019-04-13 09:00:00 -0.6 5 Sudeste 15 Este 0 -- -- 75
2019-04-13 08:00:00 -3.8 4 Nordeste 9 Nordeste 0 -- -- 82
2019-04-13 07:00:00 -3.6 3 Sudeste 10 Nordeste 0 -- -- 82
2019-04-13 06:00:00 -3.3 3 Nordeste 7 Norte 0 -- -- 77
2019-04-13 05:00:00 -2.8 2 Nordeste 6 Norte 0 -- -- 75
2019-04-13 04:00:00 -2 2 Nordeste 6 Norte 0 -- -- 72
2019-04-13 03:00:00 -0.9 3 Nordeste 9 Noroeste 0 -- -- 66
2019-04-13 02:00:00 -0.5 2 Noroeste 10 Oeste 0 -- -- 62
2019-04-13 01:00:00 0.6 2 Sudeste 9 Oeste 0 -- -- 58
2019-04-13 00:00:00 1.8 4 Norte 10 Norte 0 -- -- 53
2019-04-12 23:00:00 3.6 2 Norte 10 Noroeste 0 -- -- 45
2019-04-12 22:00:00 5.5 5 Sur 22 Nordeste 0 -- -- 40
2019-04-12 21:00:00 8.1 6 Nordeste 26 Norte 0 -- -- 30
2019-04-12 20:00:00 10 6 Norte 31 Norte 0 -- -- 26
2019-04-12 19:00:00 13.3 9 Norte 32 Norte 0 -- -- 25
2019-04-12 18:00:00 15.2 9 Norte 24 Nordeste 0 -- -- 21
2019-04-12 17:00:00 15.6 11 Nordeste 32 Nordeste 0 -- -- 21
2019-04-12 16:00:00 16.3 10 Nordeste 31 Este 0 -- -- 18
2019-04-12 15:00:00 15.6 11 Sudeste 37 Este 0 -- -- 20
2019-04-12 14:00:00 15.8 6 Noroeste 30 Norte 0 -- -- 20
2019-04-12 13:00:00 14.1 19 Nordeste 37 Nordeste 0 -- -- 16
2019-04-12 12:00:00 13.5 8 Sudeste 23 Sur 0 -- -- 28
2019-04-12 11:00:00 9.7 6 Sudoeste 16 Sudeste 0 -- -- 41
2019-04-12 10:00:00 5.8 4 Sudeste 9 Nordeste 0 -- -- 72
2019-04-12 09:00:00 3.2 2 Oeste 6 Oeste 0 -- -- 84
2019-04-12 08:00:00 2.1 4 Oeste 11 Norte 0 -- -- 89
2019-04-12 07:00:00 2.3 4 Oeste 11 Norte 0 -- -- 89
2019-04-12 06:00:00 2.7 3 Oeste 7 Norte 0 -- -- 88
2019-04-12 05:00:00 3.1 3 Este 8 Norte 0 -- -- 87
2019-04-12 04:00:00 3.7 3 Noroeste 7 Norte 0 -- -- 82
2019-04-12 03:00:00 4.4 2 Sur 5 Este 0 -- -- 83
2019-04-12 02:00:00 4.6 0 Calma 5 Norte 0 -- -- 79
2019-04-12 01:00:00 4.9 0 Calma 6 Nordeste 0 -- -- 78
2019-04-12 00:00:00 5.3 4 Norte 6 Norte 0 -- -- 76
2019-04-11 23:00:00 6 0 Calma 9 Norte 0 -- -- 71
2019-04-11 22:00:00 6.5 4 Nordeste 15 Este 0 -- -- 70
2019-04-11 21:00:00 7.4 6 Este 31 Este 0 -- -- 62
2019-04-11 20:00:00 8.4 17 Este 36 Este 0 -- -- 57
2019-04-11 19:00:00 9.8 12 Este 26 Este 0 -- -- 51
2019-04-11 18:00:00 11 7 Este 35 Este 0 -- -- 46
2019-04-11 17:00:00 12.1 5 Sudeste 21 Este 0 -- -- 43
2019-04-11 16:00:00 11.6 13 Nordeste 22 Este 0 -- -- 46
2019-04-11 15:00:00 12.9 7 Oeste 17 Nordeste 0 -- -- 37
2019-04-11 14:00:00 11.7 6 Sur 23 Este 0 -- -- 37
2019-04-11 13:00:00 12.6 8 Nordeste 23 Nordeste 0 -- -- 38
2019-04-11 12:00:00 9.6 12 Nordeste 45 Nordeste 0 -- -- 42
2019-04-11 11:00:00 9.9 12 Este 26 Nordeste 0 -- -- 44
2019-04-11 10:00:00 6.9 4 Este 10 Nordeste 0 -- -- 67
2019-04-11 09:00:00 2.5 4 Norte 10 Norte 0 -- -- 96
2019-04-11 08:00:00 -0.2 4 Oeste 8 Nordeste 0 -- -- 97
2019-04-11 07:00:00 -0.1 3 Norte 8 Nordeste 0 -- -- 96
2019-04-11 06:00:00 0.5 4 Oeste 7 Norte 0 -- -- 94
2019-04-11 05:00:00 1.6 4 Oeste 11 Norte 0 -- -- 93
2019-04-11 04:00:00 2.6 3 Noroeste 9 Norte 0 -- -- 91
2019-04-11 03:00:00 3.3 2 Noroeste 6 Norte 0.2 -- -- 90
2019-04-11 02:00:00 3.8 0 Calma 11 Este 0 -- -- 87
2019-04-11 01:00:00 4.2 3 Este 11 Este 0 -- -- 82
2019-04-11 00:00:00 4.5 6 Este 19 Este 0 -- -- 79
2019-04-10 23:00:00 4.8 3 Norte 15 Nordeste 0 -- -- 75
2019-04-10 22:00:00 5.2 6 Nordeste 30 Este 0 -- -- 72
2019-04-10 21:00:00 5.4 10 Nordeste 42 Nordeste 0 -- -- 73
2019-04-10 20:00:00 9.1 9 Nordeste 23 Norte 0 -- -- 42
2019-04-10 19:00:00 11.4 8 Norte 21 Nordeste 0 -- -- 36
2019-04-10 18:00:00 11.2 6 Nordeste 23 Norte 0 -- -- 42
2019-04-10 17:00:00 12.3 8 Norte 23 Sudoeste 0 -- -- 39
2019-04-10 16:00:00 13 10 Sur 24 Sudoeste 0 -- -- 38
2019-04-10 15:00:00 10.8 4 Sur 15 Sur 0 -- -- 49
2019-04-10 14:00:00 8.6 6 Sudeste 26 Nordeste 0.2 -- -- 70
2019-04-10 13:00:00 8.5 9 Este 22 Nordeste 0 -- -- 63
2019-04-10 12:00:00 6.8 2 Sudeste 8 Sur 0 -- -- 77
2019-04-10 11:00:00 3.4 4 Sur 19 Este 0 -- -- 94
2019-04-10 10:00:00 1.7 4 Sudeste 9 Nordeste 0 -- -- 100
2019-04-10 09:00:00 -0.6 2 Oeste 10 Este 0 -- -- 100
2019-04-10 08:00:00 -1 5 Sudeste 23 Este 0 -- -- 100
2019-04-10 07:00:00 -0.9 3 Norte 12 Este 0 -- -- 99
2019-04-10 06:00:00 -0.7 2 Nordeste 6 Nordeste 0 -- -- 99
2019-04-10 05:00:00 -0.5 2 Nordeste 5 Sudeste 0 -- -- 99
2019-04-10 04:00:00 -0.5 2 Nordeste 5 Noroeste 0 -- -- 98
2019-04-10 03:00:00 -1 2 Nordeste 5 Norte 0 -- -- 97
2019-04-10 02:00:00 -0.4 0 Calma 6 Nordeste 0 -- -- 96
2019-04-10 01:00:00 0.3 4 Norte 10 Norte 0 -- -- 96
2019-04-10 00:00:00 0.9 0 Calma 6 Norte 0 -- -- 94
2019-04-09 23:00:00 1.6 0 Calma 8 Norte 0 -- -- 92
2019-04-09 22:00:00 2.9 3 Nordeste 9 Norte 0 -- -- 91
2019-04-09 21:00:00 4.3 2 Norte 4 Norte 0 -- -- 89
2019-04-09 20:00:00 5.8 0 Calma 21 Sudoeste 0 -- -- 86
2019-04-09 19:00:00 5.8 13 Sur 40 Oeste 0.6 -- -- 81
2019-04-09 18:00:00 8.5 6 Noroeste 17 Noroeste 0.2 -- -- 66
2019-04-09 17:00:00 9.9 9 Oeste 22 Oeste 0 -- -- 54
2019-04-09 16:00:00 9.8 12 Oeste 21 Oeste 0 -- -- 59
2019-04-09 15:00:00 10.2 5 Oeste 14 Oeste 0 -- -- 56
2019-04-09 14:00:00 11.3 13 Este 26 Nordeste 0 -- -- 54
2019-04-09 13:00:00 13.2 8 Este 19 Este 0 -- -- 49
2019-04-09 12:00:00 10.9 6 Sudeste 16 Este 0 -- -- 59
2019-04-09 11:00:00 8.1 10 Este 19 Este 0 -- -- 73
2019-04-09 10:00:00 5.7 5 Sudeste 10 Sudeste 0 -- -- 85
2019-04-09 09:00:00 4.1 4 Este 10 Sudeste 0 -- -- 94
2019-04-09 08:00:00 3.1 8 Nordeste 14 Este 0 -- -- 97
2019-04-09 07:00:00 3.2 2 Sudoeste 14 Este 0 -- -- 96
2019-04-09 06:00:00 3.3 7 Norte 12 Nordeste 2.2 -- -- 96
2019-04-09 05:00:00 2.7 4 Oeste 9 Sudoeste 0.2 -- -- 96
2019-04-09 04:00:00 2.1 3 Este 5 Nordeste 0 -- -- 95
2019-04-09 03:00:00 2.5 0 Calma 6 Norte 0 -- -- 93
2019-04-09 02:00:00 3 0 Calma 8 Norte 0 -- -- 92
2019-04-09 01:00:00 4 4 Norte 7 Nordeste 0 -- -- 89
2019-04-09 00:00:00 4.5 4 Norte 10 Norte 0 -- -- 88
2019-04-08 23:00:00 5.6 6 Norte 20 Este 0 -- -- 83
2019-04-08 22:00:00 7.4 12 Este 40 Este 0 -- -- 75
2019-04-08 21:00:00 8.5 27 Este 40 Este 0 -- -- 71
2019-04-08 20:00:00 10.4 8 Norte 26 Oeste 0.2 -- -- 69
2019-04-08 19:00:00 13.8 7 Oeste 21 Oeste 0 -- -- 46
2019-04-08 18:00:00 15.1 10 Oeste 18 Oeste 0 -- -- 43
2019-04-08 17:00:00 14.3 4 Sudoeste 13 Oeste 0 -- -- 41
2019-04-08 16:00:00 13.9 7 Oeste 17 Oeste 0 -- -- 45
2019-04-08 15:00:00 13.1 10 Oeste 26 Oeste 0 -- -- 47
2019-04-08 14:00:00 12.7 12 Oeste 24 Oeste 0 -- -- 44
2019-04-08 13:00:00 12.5 7 Sudoeste 19 Sudoeste 0 -- -- 47
2019-04-08 12:00:00 10.8 6 Sudoeste 13 Sur 0 -- -- 56
2019-04-08 11:00:00 6.9 4 Este 19 Este 0 -- -- 73
2019-04-08 10:00:00 4.7 12 Este 18 Este 0 -- -- 78
2019-04-08 09:00:00 1.2 2 Este 6 Nordeste 0 -- -- 97
2019-04-08 08:00:00 -0.8 0 Calma 5 Sudeste 0 -- -- 96
2019-04-08 07:00:00 -0.4 2 Sudeste 4 Sudeste 0 -- -- 96
2019-04-08 06:00:00 0 0 Calma 4 Norte 0 -- -- 95
2019-04-08 05:00:00 0 0 Calma 5 Norte 0 -- -- 95
2019-04-08 04:00:00 -0.1 2 Nordeste 4 Nordeste 0 -- -- 94
2019-04-08 03:00:00 0.1 2 Este 8 Norte 0 -- -- 93
2019-04-08 02:00:00 0.7 0 Calma 4 Norte 0 -- -- 91
2019-04-08 01:00:00 1.2 0 Calma 6 Nordeste 0 -- -- 90
2019-04-08 00:00:00 1.3 0 Calma 7 Nordeste 0 -- -- 90
2019-04-07 23:00:00 1.8 2 Noroeste 5 Oeste 0 -- -- 88
2019-04-07 22:00:00 3 0 Calma 9 Norte 0 -- -- 83
2019-04-07 21:00:00 5.1 3 Nordeste 14 Sudoeste 0 -- -- 76
2019-04-07 20:00:00 7.3 6 Oeste 28 Oeste 0 -- -- 66
2019-04-07 19:00:00 9.3 3 Nordeste 13 Noroeste 0.6 -- -- 67
2019-04-07 18:00:00 8.7 4 Oeste 24 Sur 0.2 -- -- 67
2019-04-07 17:00:00 12.2 4 Sur 12 Oeste 0 -- -- 46
2019-04-07 16:00:00 10.8 4 Sudoeste 27 Sudoeste 0 -- -- 50
2019-04-07 15:00:00 7.6 11 Sudoeste 26 Sur 1.2 -- -- 69
2019-04-07 14:00:00 7.8 13 Sur 30 Sur 0 -- -- 57
2019-04-07 13:00:00 11.6 5 Sudeste 17 Sudeste 0 -- -- 47
2019-04-07 12:00:00 8.5 5 Nordeste 18 Nordeste 0 -- -- 57
2019-04-07 11:00:00 5.9 4 Este 12 Sudeste 0 -- -- 74
2019-04-07 10:00:00 3.7 5 Sudeste 10 Sudeste 0 -- -- 87
2019-04-07 09:00:00 1.5 0 Calma 6 Sur 0 -- -- 95
2019-04-07 08:00:00 0.9 3 Oeste 8 Este 0 -- -- 95
2019-04-07 07:00:00 1 5 Este 10 Este 0 -- -- 97
2019-04-07 06:00:00 0.9 2 Este 9 Este 0 -- -- 98
2019-04-07 05:00:00 0.8 2 Norte 5 Sur 0 -- -- 97
2019-04-07 04:00:00 1 0 Calma 4 Sur 0 -- -- 97
2019-04-07 03:00:00 1 0 Calma 4 Sudoeste 0 -- -- 97
2019-04-07 02:00:00 1 0 Calma 5 Oeste 0.8 -- -- 96
2019-04-07 01:00:00 1.1 2 Noroeste 8 Oeste 0 -- -- 97
2019-04-07 00:00:00 1.1 0 Calma 5 Noroeste 0 -- -- 93
2019-04-06 23:00:00 1.8 0 Calma 13 Oeste 0 -- -- 92
2019-04-06 22:00:00 2.4 5 Noroeste 15 Oeste 0.2 -- -- 91
2019-04-06 21:00:00 3.1 3 Norte 33 Oeste 0 -- -- 86
2019-04-06 20:00:00 5.7 4 Oeste 12 Oeste 0 -- -- 70
2019-04-06 19:00:00 6.4 6 Oeste 17 Oeste 0 -- -- 64
2019-04-06 18:00:00 6.6 10 Oeste 25 Oeste 0.2 -- -- 63
2019-04-06 17:00:00 6 9 Oeste 29 Oeste 0 -- -- 73
2019-04-06 16:00:00 5.6 8 Oeste 24 Oeste 0 -- -- 75
2019-04-06 15:00:00 7.1 10 Sudoeste 40 Sudoeste 0 -- -- 66
2019-04-06 14:00:00 7 13 Oeste 34 Sudoeste 0 -- -- 73
2019-04-06 13:00:00 5.4 13 Oeste 25 Oeste 0 -- -- 81
2019-04-06 12:00:00 4.2 6 Sudoeste 19 Oeste 0 -- -- 91
2019-04-06 11:00:00 3 4 Sudoeste 10 Oeste 0 -- -- 93
2019-04-06 10:00:00 2.1 3 Norte 15 Oeste 0 -- -- 96
2019-04-06 09:00:00 0.8 3 Noroeste 13 Noroeste 0 -- -- 99
2019-04-06 08:00:00 0.3 3 Noroeste 9 Norte 0 -- -- 99
2019-04-06 07:00:00 0.3 2 Noroeste 12 Noroeste 0 -- -- 99
2019-04-06 06:00:00 0.2 3 Noroeste 12 Noroeste 0 -- -- 99
2019-04-06 05:00:00 0.2 2 Oeste 5 Noroeste 0.8 -- -- 98
2019-04-06 04:00:00 0.2 3 Noroeste 9 Noroeste 0.2 -- -- 98
2019-04-06 03:00:00 0.2 0 Calma 3 Norte 1 -- -- 98
2019-04-06 02:00:00 0.3 0 Calma 6 Este 2.8 -- -- 97
2019-04-06 01:00:00 0.5 2 Sudeste 12 Este 5.8 -- -- 96
2019-04-06 00:00:00 1.9 3 Noroeste 13 Sudoeste 5.2 -- -- 90
2019-04-05 23:00:00 4.2 0 Calma 8 Sudoeste 1 -- -- 93
2019-04-05 22:00:00 4.4 0 Calma 7 Nordeste 0 -- -- 91
2019-04-05 21:00:00 4.6 3 Nordeste 8 Norte 0.2 -- -- 91
2019-04-05 20:00:00 5.2 4 Sudoeste 17 Este 0.2 -- -- 89
2019-04-05 19:00:00 7 6 Nordeste 11 Norte 0 -- -- 75
2019-04-05 18:00:00 8.4 2 Noroeste 16 Sudoeste 0 -- -- 61
2019-04-05 17:00:00 9.2 9 Oeste 19 Oeste 0 -- -- 54
2019-04-05 16:00:00 9.3 6 Sur 25 Oeste 0 -- -- 56
2019-04-05 15:00:00 8.5 10 Oeste 21 Oeste 0 -- -- 60
2019-04-05 14:00:00 6.5 7 Sudoeste 19 Oeste 0 -- -- 70
2019-04-05 13:00:00 5.8 9 Oeste 29 Oeste 0 -- -- 69
2019-04-05 12:00:00 6.9 11 Sudoeste 23 Sudoeste 0 -- -- 56
2019-04-05 11:00:00 6.2 6 Sudoeste 12 Sudoeste 0 -- -- 57
2019-04-05 10:00:00 1.9 2 Sudoeste 7 Sudoeste 0 -- -- 71
2019-04-05 09:00:00 -2.1 3 Sur 6 Sudeste 0 -- -- 89
2019-04-05 08:00:00 -3.9 0 Calma 6 Norte 0 -- -- 91
2019-04-05 07:00:00 -3.8 2 Sur 6 Norte 0 -- -- 92
2019-04-05 06:00:00 -3.4 0 Calma 4 Noroeste 0 -- -- 88
2019-04-05 05:00:00 -2.6 0 Calma 5 Norte 0 -- -- 86
2019-04-05 04:00:00 -2.6 0 Calma 5 Oeste 0 -- -- 85
2019-04-05 03:00:00 -1.8 0 Calma 7 Noroeste 0 -- -- 83
2019-04-05 02:00:00 -1.3 3 Norte 6 Norte 0 -- -- 79
2019-04-05 01:00:00 -0.5 2 Nordeste 6 Norte 0 -- -- 76
2019-04-05 00:00:00 0.4 0 Calma 10 Norte 0 -- -- 71
2019-04-04 23:00:00 1.3 3 Oeste 6 Oeste 0 -- -- 67
2019-04-04 22:00:00 2.3 3 Noroeste 9 Oeste 0 -- -- 61
2019-04-04 21:00:00 4.4 4 Noroeste 15 Oeste 0 -- -- 51
2019-04-04 20:00:00 7.4 6 Oeste 23 Sudoeste 0 -- -- 40
2019-04-04 19:00:00 8.7 6 Oeste 28 Oeste 0 -- -- 38
2019-04-04 18:00:00 8.7 10 Sudoeste 21 Sudoeste 0 -- -- 39
2019-04-04 17:00:00 10.7 7 Sudoeste 27 Sudoeste 0 -- -- 33
2019-04-04 16:00:00 11.4 13 Sudoeste 29 Sudoeste 0 -- -- 32
2019-04-04 15:00:00 10.9 10 Sur 23 Sudoeste 0 -- -- 31
2019-04-04 14:00:00 9.5 14 Sudoeste 31 Sudoeste 0 -- -- 38
2019-04-04 13:00:00 8.3 11 Sur 30 Sudoeste 0 -- -- 42
2019-04-04 12:00:00 6.7 11 Sudoeste 31 Sudoeste 0 -- -- 44
2019-04-04 11:00:00 3.8 10 Oeste 18 Oeste 0 -- -- 64
2019-04-04 10:00:00 1.9 3 Sudeste 6 Nordeste 0 -- -- 77
2019-04-04 09:00:00 -0.6 5 Norte 11 Norte 0 -- -- 85
2019-04-04 08:00:00 -2.9 2 Noroeste 7 Oeste 0 -- -- 93
2019-04-04 07:00:00 -2.1 0 Calma 9 Oeste 0 -- -- 94
2019-04-04 06:00:00 -1.4 0 Calma 4 Nordeste 0 -- -- 96
2019-04-04 05:00:00 -0.7 3 Oeste 6 Noroeste 0 -- -- 95
2019-04-04 04:00:00 -0.2 4 Noroeste 7 Norte 0 -- -- 93
2019-04-04 03:00:00 0.5 4 Oeste 12 Nordeste 0 -- -- 93
2019-04-04 02:00:00 0.5 2 Sudoeste 14 Este 0 -- -- 93
2019-04-04 01:00:00 1 6 Este 18 Este 0 -- -- 87
2019-04-04 00:00:00 1.1 3 Sudeste 11 Oeste 0 -- -- 95
2019-04-03 23:00:00 1.7 5 Oeste 13 Noroeste 0 -- -- 95
2019-04-03 22:00:00 2.2 3 Noroeste 9 Norte 0 -- -- 96
2019-04-03 21:00:00 2.8 3 Oeste 8 Norte 0 -- -- 95
2019-04-03 20:00:00 3.5 3 Este 5 Sudoeste 0 -- -- 95
2019-04-03 19:00:00 3.4 0 Calma 6 Sudeste 0.2 -- -- 94
2019-04-03 18:00:00 3.2 8 Oeste 26 Oeste 3.2 -- -- 91
2019-04-03 17:00:00 5.3 11 Oeste 33 Oeste 0.4 -- -- 87
2019-04-03 16:00:00 8.2 19 Sudoeste 40 Oeste 0 -- -- 65
2019-04-03 15:00:00 8.6 12 Oeste 26 Oeste 0 -- -- 70
2019-04-03 14:00:00 7.4 14 Oeste 50 Oeste 0.2 -- -- 83
2019-04-03 13:00:00 7.6 13 Sudoeste 32 Sudoeste 0 -- -- 82
2019-04-03 12:00:00 6.9 15 Sudoeste 44 Sudoeste 1.4 -- -- 88
2019-04-03 11:00:00 7.9 10 Oeste 23 Oeste 0.4 -- -- 86
2019-04-03 10:00:00 6.6 7 Oeste 19 Oeste 0.2 -- -- 96
2019-04-03 09:00:00 4.8 3 Oeste 7 Oeste 1.6 -- -- 98
2019-04-03 08:00:00 4.4 3 Nordeste 7 Este 0 -- -- 97
2019-04-03 07:00:00 4.6 3 Noroeste 9 Noroeste 0 -- -- 96
2019-04-03 06:00:00 4.2 3 Este 5 Sudeste 0.8 -- -- 96
2019-04-03 05:00:00 4.3 0 Calma 6 Norte 0 -- -- 96
2019-04-03 04:00:00 4.3 2 Noroeste 4 Sudoeste 0.2 -- -- 95
2019-04-03 03:00:00 4.1 0 Calma 5 Norte 0 -- -- 93
2019-04-03 02:00:00 3.7 0 Calma 4 Oeste 0 -- -- 93
2019-04-03 01:00:00 4.1 3 Norte 9 Norte 0 -- -- 90
2019-04-03 00:00:00 5.4 0 Calma 5 Norte 0 -- -- 85
2019-04-02 23:00:00 6.1 3 Norte 7 Nordeste 0 -- -- 86
2019-04-02 22:00:00 6.3 2 Sudoeste 10 Nordeste 0 -- -- 81
2019-04-02 21:00:00 7.3 5 Nordeste 33 Este 0.2 -- -- 81
2019-04-02 20:00:00 8.8 24 Este 37 Este 0 -- -- 66
2019-04-02 19:00:00 10.6 20 Este 36 Este 0 -- -- 61
2019-04-02 18:00:00 12.1 23 Este 40 Este 0 -- -- 57
2019-04-02 17:00:00 14 23 Este 36 Este 0 -- -- 53
2019-04-02 16:00:00 13.4 9 Nordeste 29 Este 0 -- -- 54
2019-04-02 15:00:00 13 8 Sudoeste 39 Oeste 0 -- -- 53
2019-04-02 14:00:00 14.2 4 Sudoeste 11 Sudoeste 0 -- -- 55
2019-04-02 13:00:00 11.9 4 Este 9 Sudeste 0 -- -- 70
2019-04-02 12:00:00 9.9 4 Sudeste 10 Este 0 -- -- 82
2019-04-02 11:00:00 7 3 Este 15 Este 0 -- -- 89
2019-04-02 10:00:00 5.8 2 Sur 4 Sur 0 -- -- 94
2019-04-02 09:00:00 4.6 2 Sudoeste 8 Sur 0 -- -- 97
2019-04-02 08:00:00 4 0 Calma 5 Este 0 -- -- 99
2019-04-02 07:00:00 3.7 0 Calma 5 Este 0 -- -- 99
2019-04-02 06:00:00 3.2 0 Calma 3 Norte 0 -- -- 99
2019-04-02 05:00:00 2.8 0 Calma 6 Este 0 -- -- 99
2019-04-02 04:00:00 2.3 0 Calma 4 Este 0 -- -- 98
2019-04-02 03:00:00 2.3 3 Norte 6 Norte 0 -- -- 96
2019-04-02 02:00:00 3.1 2 Norte 6 Norte 0 -- -- 95
2019-04-02 01:00:00 4 2 Noroeste 3 Noroeste 0 -- -- 95
2019-04-02 00:00:00 5 3 Nordeste 6 Norte 0 -- -- 94
2019-04-01 23:00:00 5.7 2 Oeste 7 Norte 0 -- -- 93
2019-04-01 22:00:00 6.9 3 Nordeste 6 Norte 0 -- -- 93
2019-04-01 21:00:00 7.6 2 Norte 6 Norte 0 -- -- 93
2019-04-01 20:00:00 8 3 Este 4 Este 0 -- -- 92
2019-04-01 19:00:00 8.3 2 Sur 15 Este 0.8 -- -- 91
2019-04-01 18:00:00 8.8 8 Este 26 Este 0.4 -- -- 83
2019-04-01 17:00:00 10.2 9 Este 22 Este 0.2 -- -- 77
2019-04-01 16:00:00 11.7 4 Norte 19 Sur 0 -- -- 72
2019-04-01 15:00:00 13.8 11 Sur 18 Sur 0 -- -- 50
2019-04-01 14:00:00 14.8 9 Oeste 18 Oeste 0 -- -- 45
2019-04-01 13:00:00 15.3 9 Oeste 18 Sudoeste 0 -- -- 39
2019-04-01 12:00:00 14.4 5 Sudoeste 12 Oeste 0 -- -- 45
2019-04-01 11:00:00 9.1 3 Sudeste 7 Sur 0 -- -- 65
2019-04-01 10:00:00 4.7 0 Calma 4 Sudeste 0 -- -- 80
2019-04-01 09:00:00 2.8 0 Calma 4 Sudeste 0 -- -- 86
2019-04-01 08:00:00 2.4 0 Calma 5 Este 0 -- -- 85
2019-04-01 07:00:00 2 3 Sudeste 4 Sudeste 0 -- -- 87
2019-04-01 06:00:00 1.9 0 Calma 3 Sudeste 0 -- -- 86
2019-04-01 05:00:00 1.7 0 Calma 5 Norte 0 -- -- 84
2019-04-01 04:00:00 2.7 3 Nordeste 4 Nordeste 0 -- -- 80
2019-04-01 03:00:00 3.6 0 Calma 5 Oeste 0 -- -- 79
2019-04-01 02:00:00 4.6 0 Calma 7 Norte 0 -- -- 73
2019-04-01 01:00:00 5.7 4 Norte 9 Norte 0 -- -- 69
2019-04-01 00:00:00 6.9 2 Sur 8 Norte 0 -- -- 66
2019-03-31 23:00:00 8 0 Calma 8 Oeste 0 -- -- 63
2019-03-31 22:00:00 9.2 3 Noroeste 14 Oeste 0 -- -- 59
2019-03-31 21:00:00 10.5 5 Noroeste 15 Oeste 0 -- -- 54
2019-03-31 20:00:00 12.1 5 Oeste 18 Oeste 0 -- -- 50
2019-03-31 19:00:00 13.5 10 Oeste 21 Oeste 0 -- -- 43
2019-03-31 18:00:00 14.8 12 Oeste 22 Oeste 0 -- -- 38
2019-03-31 17:00:00 16.1 11 Oeste 22 Oeste 0 -- -- 32
2019-03-31 16:00:00 16.5 9 Oeste 17 Oeste 0 -- -- 28
2019-03-31 15:00:00 16.1 9 Oeste 20 Oeste 0 -- -- 27
2019-03-31 14:00:00 15.2 8 Oeste 17 Oeste 0 -- -- 30
2019-03-31 13:00:00 13.6 8 Oeste 14 Oeste 0 -- -- 36
2019-03-31 12:00:00 9.9 3 Sur 13 Este 0 -- -- 47
2019-03-31 11:00:00 7.2 6 Este 15 Este 0 -- -- 60
2019-03-31 10:00:00 2.6 4 Sudeste 8 Sur 0 -- -- 78
2019-03-31 09:00:00 -1.3 2 Sur 5 Este 0 -- -- 92
2019-03-31 08:00:00 -3.1 3 Sudeste 5 Sudeste 0 -- -- 93
2019-03-31 07:00:00 -2.7 2 Norte 5 Norte 0 -- -- 92
2019-03-31 06:00:00 -2.3 0 Calma 8 Norte 0 -- -- 90
2019-03-31 05:00:00 -1.6 3 Nordeste 6 Nordeste 0 -- -- 89
2019-03-31 03:00:00 0.1 0 Calma 5 Norte 0 -- -- 81
2019-03-31 01:00:00 1.1 3 Norte 6 Norte 0 -- -- 76
2019-03-31 00:00:00 2.5 2 Este 6 Norte 0 -- -- 72
2019-03-30 23:00:00 3.4 3 Noroeste 7 Oeste 0 -- -- 67
2019-03-30 22:00:00 4.7 4 Norte 11 Norte 0 -- -- 62
2019-03-30 21:00:00 6.7 5 Norte 12 Noroeste 0 -- -- 56
2019-03-30 20:00:00 9.5 3 Este 17 Oeste 0 -- -- 48
2019-03-30 19:00:00 12.1 10 Oeste 23 Oeste 0 -- -- 40
2019-03-30 18:00:00 14.7 9 Oeste 26 Oeste 0 -- -- 34
2019-03-30 17:00:00 16.6 10 Oeste 27 Oeste 0 -- -- 31
2019-03-30 16:00:00 16.8 14 Oeste 29 Oeste 0 -- -- 32
2019-03-30 15:00:00 17.2 19 Oeste 35 Oeste 0 -- -- 31
2019-03-30 14:00:00 17.6 11 Sudoeste 21 Oeste 0 -- -- 28
2019-03-30 13:00:00 16.9 9 Sudoeste 17 Sudoeste 0 -- -- 26
2019-03-30 12:00:00 14.5 8 Oeste 16 Oeste 0 -- -- 34
2019-03-30 11:00:00 10.8 4 Sudeste 12 Sudeste 0 -- -- 47
2019-03-30 10:00:00 6.6 6 Este 12 Este 0 -- -- 60
2019-03-30 09:00:00 1.4 4 Sudeste 9 Sudeste 0 -- -- 79
2019-03-30 08:00:00 -2.2 0 Calma 3 Nordeste 0 -- -- 90
2019-03-30 07:00:00 -3.9 2 Este 4 Este 0 -- -- 94
2019-03-30 06:00:00 -3.6 0 Calma 3 Nordeste 0 -- -- 92
2019-03-30 05:00:00 -2.9 2 Nordeste 4 Nordeste 0 -- -- 91
2019-03-30 04:00:00 -2.5 0 Calma 5 Nordeste 0 -- -- 89
2019-03-30 03:00:00 -1.8 0 Calma 4 Sudeste 0 -- -- 89
2019-03-30 02:00:00 -0.9 0 Calma 4 Nordeste 0 -- -- 85
2019-03-30 01:00:00 0 0 Calma 5 Norte 0 -- -- 81
2019-03-30 00:00:00 1.1 3 Norte 5 Norte 0 -- -- 77
2019-03-29 23:00:00 2.4 0 Calma 5 Norte 0 -- -- 73
2019-03-29 22:00:00 3.7 0 Calma 6 Norte 0 -- -- 67
2019-03-29 21:00:00 5 3 Noroeste 6 Noroeste 0 -- -- 63
2019-03-29 20:00:00 6.8 2 Norte 5 Nordeste 0 -- -- 57
2019-03-29 19:00:00 10 4 Sudoeste 14 Oeste 0 -- -- 47
2019-03-29 18:00:00 11.5 8 Oeste 16 Oeste 0 -- -- 42
2019-03-29 17:00:00 12.2 7 Oeste 15 Oeste 0 -- -- 40
2019-03-29 16:00:00 12.6 8 Oeste 19 Sudoeste 0 -- -- 40
2019-03-29 15:00:00 13.3 8 Oeste 20 Oeste 0 -- -- 40
2019-03-29 14:00:00 14.1 12 Sudoeste 22 Sudoeste 0 -- -- 39
2019-03-29 13:00:00 14.9 10 Sudoeste 25 Sudoeste 0 -- -- 35
2019-03-29 12:00:00 12.2 8 Sur 25 Oeste 0 -- -- 43
2019-03-29 11:00:00 12.4 12 Oeste 26 Oeste 0 -- -- 45
2019-03-29 10:00:00 6.9 5 Sudeste 9 Sudeste 0 -- -- 58
2019-03-29 09:00:00 3.1 4 Sur 10 Sudeste 0 -- -- 72
2019-03-29 08:00:00 0.4 5 Sudeste 8 Sudeste 0 -- -- 82
2019-03-29 07:00:00 -0.8 0 Calma 5 Este 0 -- -- 87
2019-03-29 06:00:00 -1.7 0 Calma 6 Norte 0 -- -- 88
2019-03-29 05:00:00 -1.6 4 Nordeste 7 Este 0 -- -- 86
2019-03-29 04:00:00 -0.9 2 Este 6 Sudeste 0 -- -- 85
2019-03-29 03:00:00 0 3 Sur 6 Nordeste 0 -- -- 81
2019-03-29 02:00:00 0.8 0 Calma 7 Norte 0 -- -- 77
2019-03-29 01:00:00 1.6 4 Nordeste 8 Nordeste 0 -- -- 72
2019-03-29 00:00:00 2.5 3 Noroeste 10 Noroeste 0 -- -- 68
2019-03-28 23:00:00 3.9 6 Norte 11 Norte 0 -- -- 63
2019-03-28 22:00:00 5.4 3 Norte 8 Este 0 -- -- 58
2019-03-28 21:00:00 7.9 3 Nordeste 17 Este 0 -- -- 51
2019-03-28 20:00:00 9.9 4 Sudeste 15 Nordeste 0 -- -- 45
2019-03-28 19:00:00 12.5 5 Norte 23 Este 0 -- -- 36
2019-03-28 18:00:00 15 10 Este 36 Este 0 -- -- 28
2019-03-28 17:00:00 17.1 11 Este 31 Sudeste 0 -- -- 24
2019-03-28 16:00:00 17.4 17 Este 39 Este 0 -- -- 21
2019-03-28 15:00:00 18.4 10 Este 25 Este 0 -- -- 19
2019-03-28 14:00:00 17.8 6 Sur 21 Este 0 -- -- 20
2019-03-28 13:00:00 16.2 7 Sudeste 22 Este 0 -- -- 21
2019-03-28 12:00:00 14.3 7 Este 13 Este 0 -- -- 21
2019-03-28 11:00:00 10.9 6 Sur 10 Este 0 -- -- 27
2019-03-28 10:00:00 6.8 5 Este 21 Este 0 -- -- 39
2019-03-28 09:00:00 2.1 5 Este 10 Este 0 -- -- 55
2019-03-28 08:00:00 -2 0 Calma 4 Nordeste 0 -- -- 68
2019-03-28 07:00:00 -4.1 0 Calma 4 Nordeste 0 -- -- 73
2019-03-28 06:00:00 -3.6 2 Nordeste 5 Nordeste 0 -- -- 71
2019-03-28 05:00:00 -2.9 0 Calma 4 Nordeste 0 -- -- 67
2019-03-28 04:00:00 -2.1 2 Nordeste 4 Oeste 0 -- -- 64
2019-03-28 03:00:00 -1.1 3 Nordeste 5 Nordeste 0 -- -- 58
2019-03-28 02:00:00 0 0 Calma 7 Noroeste 0 -- -- 55
2019-03-28 01:00:00 0.9 3 Norte 8 Norte 0 -- -- 52
2019-03-28 00:00:00 2.2 4 Norte 9 Norte 0 -- -- 49
2019-03-27 23:00:00 4.8 5 Este 30 Este 0 -- -- 43
2019-03-27 22:00:00 6.8 15 Este 40 Este 0 -- -- 38
2019-03-27 21:00:00 7.9 23 Este 36 Este 0 -- -- 32
2019-03-27 20:00:00 9.1 9 Este 32 Nordeste 0 -- -- 26
2019-03-27 19:00:00 11.5 12 Nordeste 30 Nordeste 0 -- -- 19
2019-03-27 18:00:00 14.5 12 Norte 22 Nordeste 0 -- -- 15
2019-03-27 17:00:00 15.9 11 Nordeste 30 Norte 0 -- -- 13
2019-03-27 16:00:00 17 11 Este 31 Nordeste 0 -- -- 13
2019-03-27 15:00:00 17 12 Sudeste 34 Sudeste 0 -- -- 12
2019-03-27 14:00:00 17 12 Este 30 Nordeste 0 -- -- 13
2019-03-27 13:00:00 16.8 9 Sudeste 32 Este 0 -- -- 13
2019-03-27 12:00:00 15.1 10 Este 23 Este 0 -- -- 14
2019-03-27 11:00:00 11.6 5 Sudeste 15 Este 0 -- -- 19
2019-03-27 10:00:00 5.6 3 Sudoeste 10 Este 0 -- -- 34
2019-03-27 09:00:00 2.1 4 Sudeste 16 Este 0 -- -- 45
2019-03-27 08:00:00 -2 3 Este 6 Nordeste 0 -- -- 58
2019-03-27 07:00:00 -4.3 3 Este 9 Norte 0 -- -- 64
2019-03-27 06:00:00 -3.6 4 Norte 9 Norte 0 -- -- 56
2019-03-27 05:00:00 -2.9 2 Nordeste 8 Norte 0 -- -- 56
2019-03-27 04:00:00 -1.5 0 Calma 6 Norte 0 -- -- 48
2019-03-27 03:00:00 -0.4 3 Noroeste 12 Norte 0 -- -- 45
2019-03-27 02:00:00 0.4 6 Norte 12 Norte 0 -- -- 41
2019-03-27 01:00:00 2.5 5 Norte 31 Este 0 -- -- 34
2019-03-27 00:00:00 4.9 17 Este 31 Este 0 -- -- 29
2019-03-26 23:00:00 5.8 8 Norte 37 Nordeste 0 -- -- 25
2019-03-26 22:00:00 6.1 13 Este 30 Este 0 -- -- 23
2019-03-26 21:00:00 6.9 20 Este 35 Nordeste 0 -- -- 21
2019-03-26 20:00:00 8 20 Nordeste 41 Este 0 -- -- 16
2019-03-26 19:00:00 9.2 8 Nordeste 27 Noroeste 0 -- -- 14
2019-03-26 18:00:00 12.2 8 Norte 26 Nordeste 0 -- -- 13
2019-03-26 17:00:00 13.3 8 Nordeste 35 Norte 0 -- -- 13
2019-03-26 16:00:00 14.7 12 Norte 31 Norte 0 -- -- 10
2019-03-26 15:00:00 15.3 9 Nordeste 41 Nordeste 0 -- -- 8
2019-03-26 14:00:00 14.9 9 Nordeste 33 Norte 0 -- -- 7
2019-03-26 13:00:00 15.3 11 Norte 44 Norte 0 -- -- 8
2019-03-26 12:00:00 15.1 8 Nordeste 45 Nordeste 0 -- -- 8
2019-03-26 11:00:00 13.9 10 Norte 37 Norte 0 -- -- 9
2019-03-26 10:00:00 10.4 7 Noroeste 21 Norte 0 -- -- 11
2019-03-26 09:00:00 7.7 8 Este 20 Sudeste 0 -- -- 17
2019-03-26 08:00:00 3.6 7 Oeste 32 Nordeste 0 -- -- 28
2019-03-26 07:00:00 -1.7 8 Norte 18 Norte 0 -- -- 46
2019-03-26 06:00:00 -2 3 Noroeste 11 Norte 0 -- -- 56
2019-03-26 05:00:00 -1.7 4 Noroeste 8 Norte 0 -- -- 67
2019-03-26 04:00:00 -1 2 Noroeste 7 Oeste 0 -- -- 67
2019-03-26 03:00:00 -0.8 3 Noroeste 7 Nordeste 0 -- -- 68
2019-03-26 02:00:00 -0.1 3 Norte 8 Oeste 0 -- -- 65
2019-03-26 01:00:00 1 2 Noroeste 10 Norte 0 -- -- 59
2019-03-26 00:00:00 2.2 3 Noroeste 6 Norte 0 -- -- 54
2019-03-25 23:00:00 4.3 2 Este 18 Nordeste 0 -- -- 45
2019-03-25 22:00:00 7.1 6 Noroeste 31 Nordeste 0 -- -- 38
2019-03-25 21:00:00 8.5 8 Nordeste 25 Nordeste 0 -- -- 35
2019-03-25 20:00:00 9.5 14 Norte 28 Nordeste 0 -- -- 31
2019-03-25 19:00:00 11.7 16 Nordeste 36 Nordeste 0 -- -- 25
2019-03-25 18:00:00 13.9 13 Nordeste 39 Nordeste 0 -- -- 20
2019-03-25 17:00:00 16.2 21 Nordeste 36 Nordeste 0 -- -- 16
2019-03-25 16:00:00 18.7 10 Norte 33 Norte 0 -- -- 11
2019-03-25 15:00:00 19.9 11 Norte 41 Norte 0 -- -- 13
2019-03-25 14:00:00 20.5 21 Sudoeste 34 Sudoeste 0 -- -- 14
2019-03-25 13:00:00 19.1 10 Oeste 25 Oeste 0 -- -- 18
2019-03-25 12:00:00 16.8 4 Sur 15 Este 0 -- -- 27
2019-03-25 11:00:00 13.5 11 Este 19 Este 0 -- -- 32
2019-03-25 10:00:00 8.8 5 Este 14 Este 0 -- -- 50
2019-03-25 09:00:00 4.8 7 Este 17 Este 0 -- -- 66
2019-03-25 08:00:00 0.4 2 Este 5 Sudeste 0 -- -- 81
2019-03-25 07:00:00 -1.5 2 Sudeste 5 Nordeste 0 -- -- 85
2019-03-25 06:00:00 -0.7 0 Calma 5 Sudeste 0 -- -- 83
2019-03-25 05:00:00 0.5 0 Calma 6 Este 0 -- -- 78
2019-03-25 04:00:00 1.4 3 Norte 6 Norte 0 -- -- 71
2019-03-25 03:00:00 2.6 2 Norte 5 Norte 0 -- -- 69
2019-03-25 02:00:00 3.8 3 Nordeste 9 Norte 0 -- -- 67
2019-03-25 01:00:00 5 3 Noroeste 9 Norte 0 -- -- 64
2019-03-25 00:00:00 6.4 5 Norte 8 Norte 0 -- -- 60
2019-03-24 23:00:00 7.9 0 Calma 7 Norte 0 -- -- 56
2019-03-24 22:00:00 9.7 2 Sudoeste 13 Este 0 -- -- 51
2019-03-24 21:00:00 11.7 7 Este 22 Este 0 -- -- 45
2019-03-24 20:00:00 13.2 11 Nordeste 32 Este 0 -- -- 42
2019-03-24 19:00:00 15.4 10 Este 27 Sudeste 0 -- -- 36
2019-03-24 18:00:00 17.4 10 Este 32 Este 0 -- -- 31
2019-03-24 17:00:00 20.3 6 Sur 21 Sur 0 -- -- 22
2019-03-24 16:00:00 20.9 9 Sudoeste 21 Sudoeste 0 -- -- 20
2019-03-24 15:00:00 22 9 Sudoeste 19 Sudoeste 0 -- -- 16
2019-03-24 14:00:00 21.3 8 Sudoeste 18 Sudoeste 0 -- -- 14
2019-03-24 13:00:00 19.9 5 Sudeste 15 Este 0 -- -- 15
2019-03-24 12:00:00 17.9 7 Este 14 Este 0 -- -- 19
2019-03-24 11:00:00 13.1 5 Sudeste 10 Este 0 -- -- 29
2019-03-24 10:00:00 8.1 5 Este 16 Este 0 -- -- 45
2019-03-24 09:00:00 2.3 3 Sudeste 9 Este 0 -- -- 65
2019-03-24 08:00:00 -1.6 3 Sudeste 7 Sudeste 0 -- -- 82
2019-03-24 07:00:00 -2.4 0 Calma 5 Este 0 -- -- 80
2019-03-24 06:00:00 -1.9 0 Calma 8 Este 0 -- -- 80
2019-03-24 05:00:00 -1 0 Calma 6 Sudeste 0 -- -- 75
2019-03-24 04:00:00 -0.3 3 Este 7 Sudeste 0 -- -- 73
2019-03-24 03:00:00 0.7 2 Norte 4 Norte 0 -- -- 67
2019-03-24 02:00:00 1.9 0 Calma 5 Nordeste 0 -- -- 65
2019-03-24 01:00:00 3.1 0 Calma 8 Nordeste 0 -- -- 62
2019-03-24 00:00:00 4.4 3 Nordeste 6 Nordeste 0 -- -- 57
2019-03-23 23:00:00 5.8 3 Nordeste 9 Nordeste 0 -- -- 53
2019-03-23 22:00:00 7.3 4 Norte 13 Noroeste 0 -- -- 47
2019-03-23 21:00:00 9.4 4 Noroeste 11 Norte 0 -- -- 41
2019-03-23 20:00:00 13 7 Nordeste 26 Este 0 -- -- 34
2019-03-23 19:00:00 15.2 8 Nordeste 27 Este 0 -- -- 29
2019-03-23 18:00:00 17.2 10 Este 33 Este 0 -- -- 25
2019-03-23 17:00:00 19.2 10 Este 32 Este 0 -- -- 20
2019-03-23 16:00:00 20 13 Este 28 Este 0 -- -- 18
2019-03-23 15:00:00 21.1 9 Este 21 Nordeste 0 -- -- 17
2019-03-23 14:00:00 20.9 11 Sur 19 Sudeste 0 -- -- 18
2019-03-23 13:00:00 19.9 8 Sur 16 Nordeste 0 -- -- 16
2019-03-23 12:00:00 18 9 Este 16 Este 0 -- -- 21
2019-03-23 11:00:00 13.7 5 Sudeste 11 Este 0 -- -- 34
2019-03-23 10:00:00 8 5 Este 15 Este 0 -- -- 51
2019-03-23 09:00:00 2.1 4 Sudeste 12 Este 0 -- -- 76
2019-03-23 08:00:00 -1.5 0 Calma 4 Sudeste 0 -- -- 88
2019-03-23 07:00:00 -2.7 0 Calma 5 Nordeste 0 -- -- 89
2019-03-23 06:00:00 -2 2 Este 5 Este 0 -- -- 87
2019-03-23 05:00:00 -1.5 3 Nordeste 6 Este 0 -- -- 85
2019-03-23 04:00:00 -0.8 4 Sudeste 7 Sudeste 0 -- -- 84
2019-03-23 03:00:00 0.2 3 Este 9 Este 0 -- -- 84
2019-03-23 02:00:00 1.3 0 Calma 4 Norte 0 -- -- 76
2019-03-23 01:00:00 2.5 3 Nordeste 4 Norte 0 -- -- 71
2019-03-23 00:00:00 4 3 Nordeste 5 Nordeste 0 -- -- 66
2019-03-22 23:00:00 5.3 3 Norte 7 Norte 0 -- -- 61
2019-03-22 22:00:00 7.2 3 Norte 8 Norte 0 -- -- 55
2019-03-22 21:00:00 9.6 3 Norte 12 Nordeste 0 -- -- 48
2019-03-22 20:00:00 12.5 8 Este 20 Nordeste 0 -- -- 41
2019-03-22 19:00:00 14.5 3 Nordeste 14 Sudeste 0 -- -- 36
2019-03-22 18:00:00 17.1 3 Sudeste 12 Sudeste 0 -- -- 30
2019-03-22 17:00:00 17.5 5 Sudeste 15 Oeste 0 -- -- 29
2019-03-22 16:00:00 17.7 7 Sudoeste 18 Sur 0 -- -- 29
2019-03-22 15:00:00 18.7 10 Sur 29 Sur 0 -- -- 26
2019-03-22 14:00:00 18.7 6 Sur 15 Oeste 0 -- -- 30
2019-03-22 13:00:00 17.5 7 Nordeste 20 Nordeste 0 -- -- 31
2019-03-22 12:00:00 14.7 5 Sur 11 Sudeste 0 -- -- 35
2019-03-22 11:00:00 11.8 5 Sudeste 14 Este 0 -- -- 36
2019-03-22 10:00:00 6.4 5 Sudeste 13 Este 0 -- -- 49
2019-03-22 09:00:00 0.4 2 Sudeste 5 Este 0 -- -- 70
2019-03-22 08:00:00 -2.1 2 Nordeste 5 Este 0 -- -- 80
2019-03-22 07:00:00 -4.1 2 Sudeste 6 Sudeste 0 -- -- 84
2019-03-22 06:00:00 -3.6 2 Este 6 Este 0 -- -- 80
2019-03-22 05:00:00 -3.1 3 Este 6 Norte 0 -- -- 79
2019-03-22 04:00:00 -2.6 2 Nordeste 4 Sudeste 0 -- -- 77
2019-03-22 03:00:00 -2.4 0 Calma 4 Nordeste 0 -- -- 75
2019-03-22 02:00:00 -1.4 0 Calma 4 Sudoeste 0 -- -- 69
2019-03-22 01:00:00 -0.6 0 Calma 5 Nordeste 0 -- -- 66
2019-03-22 00:00:00 0.7 0 Calma 8 Norte 0 -- -- 61
2019-03-21 23:00:00 2.1 3 Nordeste 11 Norte 0 -- -- 55
2019-03-21 22:00:00 3.1 7 Norte 14 Norte 0 -- -- 52
2019-03-21 21:00:00 5.3 9 Norte 18 Este 0 -- -- 46
2019-03-21 20:00:00 8.3 10 Nordeste 40 Este 0 -- -- 38
2019-03-21 19:00:00 10.2 15 Este 31 Nordeste 0 -- -- 36
2019-03-21 18:00:00 14.1 10 Este 21 Este 0 -- -- 25
2019-03-21 17:00:00 14.3 10 Nordeste 25 Este 0 -- -- 22
2019-03-21 16:00:00 15.8 8 Este 22 Este 0 -- -- 20
2019-03-21 15:00:00 16.2 6 Sudeste 19 Norte 0 -- -- 21
2019-03-21 14:00:00 15.3 7 Sur 18 Sur 0 -- -- 20
2019-03-21 13:00:00 14.2 6 Este 17 Este 0 -- -- 18
2019-03-21 12:00:00 11.8 10 Este 23 Este 0 -- -- 25
2019-03-21 11:00:00 9.4 12 Este 20 Nordeste 0 -- -- 33
2019-03-21 10:00:00 4.2 4 Este 16 Este 0 -- -- 50
2019-03-21 09:00:00 -0.1 6 Este 12 Este 0 -- -- 65
2019-03-21 08:00:00 -4.3 2 Sudeste 4 Este 0 -- -- 78
2019-03-21 07:00:00 -5.4 0 Calma 8 Este 0 -- -- 81
2019-03-21 06:00:00 -5.1 2 Este 5 Sudeste 0 -- -- 78
2019-03-21 05:00:00 -4.9 3 Sudeste 7 Sudeste 0 -- -- 78
2019-03-21 04:00:00 -3.8 3 Nordeste 4 Nordeste 0 -- -- 71
2019-03-21 03:00:00 -3.4 2 Nordeste 5 Norte 0 -- -- 68
2019-03-21 02:00:00 -2.8 2 Norte 6 Norte 0 -- -- 65
2019-03-21 01:00:00 -1.9 2 Noroeste 8 Norte 0 -- -- 61
2019-03-21 00:00:00 -1.2 3 Oeste 6 Sudoeste 0 -- -- 59